Terminal Aerodrome Forecast
Issued by NWS

Home | Current Version | Previous Version | Text Only | Print | Product List | Glossary On
Versions: 1 2 3 4 5 6 7 8 9 10 11 12 13 14 15 16 17
000
FTUS42 KMLB 262033 AAA
TAFSUA
TAF AMD
KSUA 262033Z 2621/2718 01014G20KT P6SM FEW045
     FM270000 03010KT P6SM BKN035
     FM271300 11014G20KT P6SM VCSH BKN035=

USA.gov is the U.S. government's official web portal to all federal, state and local government web resources and services.